Time;durP1;ratioP1;P1;durP2;ratioP2;P2;SDS_P1;SDS_P2;PMS_P1;PMS_P2;Temp;Humidity;BMP_temperature;BMP_pressure;BME280_temperature;BME280_humidity;BME280_pressure;Samples;Min_cycle;Max_cycle;Signal;HPM_P1;HPM_P2
2022/08/01 00:00:10;;;;;;;12.90;9.77;;;;;;;21.92;67.64;99668.97;5008646;28;20152;-30
2022/08/01 00:02:39;;;;;;;13.48;10.10;;;;;;;22.49;66.10;99692.19;5009740;28;20025;-29
2022/08/01 00:05:06;;;;;;;12.02;9.45;;;;;;;22.71;65.31;99683.25;5010568;28;20322;-30
2022/08/01 00:07:36;;;;;;;16.33;10.35;;;;;;;22.81;64.45;99688.44;5008864;28;20117;-34
2022/08/01 00:10:03;;;;;;;13.82;9.50;;;;;;;23.04;63.54;99689.25;5025216;28;20037;-28
2022/08/01 00:12:29;;;;;;;13.75;10.02;;;;;;;22.92;64.11;99673.47;5008498;28;20026;-29
2022/08/01 00:14:54;;;;;;;11.75;9.30;;;;;;;23.05;63.81;99682.72;5009920;28;20421;-30
2022/08/01 00:17:19;;;;;;;11.57;9.40;;;;;;;23.15;63.56;99682.44;5009850;28;20504;-29
2022/08/01 00:19:45;;;;;;;12.48;9.98;;;;;;;23.33;62.79;99682.53;5009777;28;20088;-30
2022/08/01 00:22:10;;;;;;;14.00;10.93;;;;;;;23.41;62.72;99679.03;5009197;28;20068;-32
2022/08/01 00:24:36;;;;;;;12.48;9.93;;;;;;;23.49;62.01;99685.63;5009501;28;20026;-30
2022/08/01 00:27:01;;;;;;;13.52;10.43;;;;;;;23.33;62.18;99671.63;5009815;28;20026;-28
2022/08/01 00:29:27;;;;;;;14.02;9.88;;;;;;;23.35;62.66;99683.00;5009661;28;20032;-27
2022/08/01 00:31:52;;;;;;;12.48;9.90;;;;;;;23.31;62.67;99682.81;5007937;28;20029;-29
2022/08/01 00:34:18;;;;;;;12.35;8.80;;;;;;;23.43;62.10;99674.88;5009761;28;20021;-29
2022/08/01 00:36:43;;;;;;;13.10;9.68;;;;;;;23.48;62.12;99668.50;5009487;28;20052;-29
2022/08/01 00:39:09;;;;;;;13.73;10.57;;;;;;;23.21;62.72;99675.75;5009595;28;20030;-28
2022/08/01 00:41:34;;;;;;;14.63;9.75;;;;;;;23.19;63.13;99682.59;5009086;28;20036;-31
2022/08/01 00:44:04;;;;;;;13.70;10.70;;;;;;;22.70;64.21;99690.63;5007507;28;20034;-28
2022/08/01 00:46:29;;;;;;;14.70;11.35;;;;;;;22.79;64.24;99688.75;5006367;28;20065;-29
2022/08/01 00:48:55;;;;;;;16.38;10.55;;;;;;;23.11;63.27;99686.91;5007890;28;20129;-28
2022/08/01 00:51:22;;;;;;;13.15;10.52;;;;;;;23.25;62.27;99676.75;5009201;28;20022;-34
2022/08/01 00:53:47;;;;;;;14.87;10.77;;;;;;;23.42;62.00;99680.66;5007598;28;20030;-30
2022/08/01 00:56:13;;;;;;;13.57;10.65;;;;;;;23.34;62.12;99684.13;5007711;28;20277;-28
2022/08/01 00:58:39;;;;;;;13.95;11.18;;;;;;;23.39;61.35;99670.38;5007347;28;20048;-28
2022/08/01 01:01:04;;;;;;;14.57;10.85;;;;;;;23.37;61.58;99667.16;5007405;28;20030;-29
2022/08/01 01:03:30;;;;;;;13.75;10.73;;;;;;;23.46;61.18;99681.63;5008937;28;20486;-29
2022/08/01 01:06:35;;;;;;;13.05;10.60;;;;;;;23.03;61.67;99677.56;5008596;28;20022;-29
2022/08/01 01:09:39;;;;;;;11.93;9.68;;;;;;;22.84;62.81;99677.75;4993220;28;20042;-28
2022/08/01 01:12:33;;;;;;;12.00;10.23;;;;;;;22.59;61.07;99681.09;5008766;28;20022;-28
2022/08/01 01:15:09;;;;;;;11.75;10.10;;;;;;;22.25;60.53;99666.09;5009043;28;20068;-30
2022/08/01 01:17:45;;;;;;;11.52;9.82;;;;;;;22.36;60.49;99677.56;5006756;28;20054;-28
2022/08/01 01:20:13;;;;;;;12.45;10.60;;;;;;;21.59;62.10;99663.66;5008575;28;20038;-27
2022/08/01 01:22:45;;;;;;;16.75;11.32;;;;;;;21.75;63.27;99680.44;5006796;28;20034;-28
2022/08/01 01:25:37;;;;;;;12.25;10.70;;;;;;;21.74;63.23;99678.03;5007147;28;20076;-29
2022/08/01 01:28:08;;;;;;;13.40;10.95;;;;;;;21.75;63.06;99669.59;4997957;28;20084;-30
2022/08/01 01:30:36;;;;;;;12.55;11.02;;;;;;;22.15;61.90;99677.16;5007231;28;20040;-30
2022/08/01 01:33:06;;;;;;;14.15;11.10;;;;;;;22.12;61.45;99677.78;5007083;28;20036;-30
2022/08/01 01:35:35;;;;;;;13.13;11.05;;;;;;;22.10;61.60;99683.53;5007273;28;20249;-28
2022/08/01 01:38:10;;;;;;;11.70;10.48;;;;;;;22.29;61.64;99667.09;5008285;28;20072;-28
2022/08/01 01:40:38;;;;;;;12.77;10.40;;;;;;;22.30;60.34;99673.34;5006787;28;20018;-30
2022/08/01 01:43:04;;;;;;;;;;;;;;;22.48;60.92;99690.63;5007735;28;20022;-28
2022/08/01 01:45:31;;;;;;;13.57;11.07;;;;;;;22.23;60.42;99674.59;5008605;28;19913;-29
2022/08/01 01:47:58;;;;;;;14.52;11.05;;;;;;;21.99;60.67;99663.94;5023315;28;20018;-28
2022/08/01 01:50:25;;;;;;;13.02;11.48;;;;;;;22.10;61.80;99680.00;5007026;28;20065;-29
2022/08/01 01:52:52;;;;;;;12.80;11.27;;;;;;;21.94;61.76;99665.97;5006547;28;20036;-28
2022/08/01 01:55:21;;;;;;;13.57;10.80;;;;;;;22.10;61.08;99674.59;5006822;28;20065;-28
2022/08/01 01:57:48;;;;;;;12.85;11.32;;;;;;;21.84;61.16;99666.97;5007685;28;20030;-27
2022/08/01 02:00:15;;;;;;;12.50;10.90;;;;;;;21.43;62.02;99660.47;5007147;28;20033;-28
2022/08/01 02:02:42;;;;;;;24.80;11.93;;;;;;;21.10;63.41;99673.25;5006428;28;20026;-28
2022/08/01 02:05:10;;;;;;;15.73;12.60;;;;;;;21.01;64.11;99667.72;5006690;28;20037;-31
2022/08/01 02:07:38;;;;;;;12.35;10.98;;;;;;;20.74;64.71;99656.78;5008061;28;20030;-28
2022/08/01 02:10:05;;;;;;;12.15;10.80;;;;;;;20.75;64.41;99648.38;5006591;28;20505;-28
2022/08/01 02:12:35;;;;;;;12.63;10.60;;;;;;;20.72;64.78;99670.66;5006186;28;20129;-29
2022/08/01 02:15:02;;;;;;;12.52;11.32;;;;;;;20.64;64.60;99661.28;5006582;28;20453;-31
2022/08/01 02:17:28;;;;;;;13.02;11.43;;;;;;;21.00;64.19;99668.00;5006536;28;20108;-28
2022/08/01 02:19:55;;;;;;;13.13;11.82;;;;;;;20.97;63.83;99665.91;5006427;28;20495;-33
2022/08/01 02:22:30;;;;;;;13.55;12.13;;;;;;;21.15;63.65;99672.38;5006421;28;20129;-33
2022/08/01 02:25:22;;;;;;;13.95;11.30;;;;;;;21.05;63.25;99663.31;5008370;28;20033;-28
2022/08/01 02:28:01;;;;;;;13.32;11.27;;;;;;;20.67;64.02;99655.25;5006675;28;20034;-27
2022/08/01 02:30:32;;;;;;;13.07;11.77;;;;;;;20.59;65.23;99672.19;5007632;28;20029;-29
2022/08/01 02:33:18;;;;;;;11.88;10.68;;;;;;;20.44;65.67;99659.66;5006564;28;20040;-31
2022/08/01 02:35:49;;;;;;;12.32;11.07;;;;;;;20.53;64.93;99667.94;5006598;28;20030;-30
2022/08/01 02:38:15;;;;;;;12.63;11.32;;;;;;;20.46;64.88;99662.88;5006419;28;20034;-30
2022/08/01 02:40:45;;;;;;;12.60;11.30;;;;;;;20.52;65.15;99673.66;5006307;28;20123;-31
2022/08/01 02:43:12;;;;;;;12.50;11.18;;;;;;;20.56;64.97;99671.97;5006280;28;20058;-28
2022/08/01 02:45:43;;;;;;;12.02;10.80;;;;;;;20.55;65.11;99673.84;5011658;28;20025;-27
2022/08/01 02:48:11;;;;;;;12.85;11.52;;;;;;;20.43;64.79;99658.06;5011507;28;20038;-30
2022/08/01 02:50:39;;;;;;;13.02;11.73;;;;;;;20.62;64.46;99666.19;5009819;28;20506;-28
2022/08/01 02:53:09;;;;;;;12.60;11.32;;;;;;;20.62;64.48;99676.25;5009835;28;20034;-29
2022/08/01 02:55:38;;;;;;;13.27;11.98;;;;;;;20.57;64.70;99674.38;5009889;28;20022;-28
2022/08/01 02:58:04;;;;;;;13.70;12.30;;;;;;;20.22;65.37;99654.03;5011587;28;20030;-29
2022/08/01 03:00:31;;;;;;;14.63;12.05;;;;;;;20.41;65.02;99660.28;5009932;28;20510;-28
2022/08/01 03:02:58;;;;;;;12.93;11.63;;;;;;;20.45;65.03;99666.72;5009955;28;20052;-32
2022/08/01 03:05:25;;;;;;;13.20;11.90;;;;;;;20.32;65.03;99644.97;5009768;28;20529;-34
2022/08/01 03:07:52;;;;;;;21.80;13.00;;;;;;;20.44;64.75;99659.66;5009555;28;20034;-28
2022/08/01 03:10:19;;;;;;;13.13;11.70;;;;;;;20.38;64.43;99643.81;5009905;28;20041;-27
2022/08/01 03:12:46;;;;;;;14.82;11.40;;;;;;;20.41;64.79;99659.44;5009717;28;20030;-32
2022/08/01 03:15:15;;;;;;;13.23;11.32;;;;;;;20.39;64.18;99662.47;5010908;28;20061;-27
2022/08/01 03:17:42;;;;;;;13.50;11.57;;;;;;;20.31;63.54;99644.19;5009391;28;20061;-29
2022/08/01 03:20:12;;;;;;;12.63;11.32;;;;;;;20.26;63.54;99647.75;5010862;28;20037;-27
2022/08/01 03:22:40;;;;;;;12.02;10.75;;;;;;;20.31;63.06;99652.31;5009084;28;20045;-29
2022/08/01 03:25:07;;;;;;;14.48;11.30;;;;;;;20.42;62.91;99656.44;5026127;28;20126;-28
2022/08/01 03:27:36;;;;;;;11.60;10.05;;;;;;;20.47;62.39;99664.50;5009451;28;20512;-30
2022/08/01 03:30:04;;;;;;;11.68;10.57;;;;;;;20.46;62.44;99668.31;5010804;28;20111;-27
2022/08/01 03:32:31;;;;;;;11.60;10.27;;;;;;;20.46;62.04;99667.50;5008973;28;20052;-28
2022/08/01 03:34:57;;;;;;;10.75;9.73;;;;;;;20.28;62.71;99644.75;5008560;28;20033;-31
2022/08/01 03:37:26;;;;;;;12.57;11.38;;;;;;;20.32;62.87;99656.59;5009070;28;20096;-28
2022/08/01 03:40:04;;;;;;;11.32;10.23;;;;;;;20.73;62.05;99666.84;5009214;28;20030;-28
2022/08/01 03:42:37;;;;;;;13.93;10.45;;;;;;;20.61;61.68;99661.06;5008965;28;20250;-27
2022/08/01 03:45:09;;;;;;;10.95;9.75;;;;;;;20.59;61.01;99665.97;5009001;28;20406;-28
2022/08/01 03:47:35;;;;;;;17.15;10.30;;;;;;;20.68;60.64;99666.94;5010184;28;20115;-28
2022/08/01 03:50:03;;;;;;;11.07;9.52;;;;;;;20.52;60.83;99650.06;5009201;28;20026;-29
2022/08/01 03:52:31;;;;;;;9.43;8.52;;;;;;;20.54;60.36;99638.94;5009837;28;20022;-28
2022/08/01 03:55:01;;;;;;;10.38;9.27;;;;;;;20.50;61.19;99662.31;5008351;28;20022;-28
2022/08/01 03:57:29;;;;;;;11.18;8.68;;;;;;;20.54;60.12;99639.75;5010154;28;20092;-29
2022/08/01 03:59:58;;;;;;;9.50;8.52;;;;;;;20.75;59.77;99647.56;5010273;28;20387;-28
2022/08/01 04:02:26;;;;;;;9.48;8.10;;;;;;;20.80;59.09;99651.00;5010176;28;20034;-28
2022/08/01 04:04:52;;;;;;;9.23;7.75;;;;;;;20.92;58.52;99655.13;5008797;28;20033;-29
2022/08/01 04:07:22;;;;;;;9.00;8.10;;;;;;;20.89;58.43;99650.31;5010019;28;20504;-28
2022/08/01 04:09:48;;;;;;;9.75;8.15;;;;;;;20.98;58.55;99667.50;5008686;28;20037;-27
2022/08/01 04:12:13;;;;;;;8.90;8.00;;;;;;;21.04;58.46;99661.72;5009848;28;20030;-27
2022/08/01 04:14:39;;;;;;;9.13;7.55;;;;;;;21.11;57.87;99642.34;5007931;28;20096;-28
2022/08/01 04:17:04;;;;;;;9.00;7.72;;;;;;;21.26;57.60;99663.72;5009780;28;20104;-30
2022/08/01 04:19:30;;;;;;;8.98;6.82;;;;;;;21.19;57.67;99652.50;5009895;28;20057;-28
2022/08/01 04:21:56;;;;;;;9.02;7.60;;;;;;;21.34;57.32;99658.72;5010115;28;20496;-30
2022/08/01 04:24:23;;;;;;;9.85;7.00;;;;;;;21.21;57.03;99644.84;4991985;28;20026;-30
2022/08/01 04:26:50;;;;;;;9.15;7.18;;;;;;;21.35;56.95;99641.34;5008407;28;20486;-30
2022/08/01 04:29:19;;;;;;;9.60;7.00;;;;;;;21.51;56.96;99664.38;5008109;28;20030;-31
2022/08/01 04:31:47;;;;;;;9.45;6.40;;;;;;;21.63;57.01;99666.59;5008413;28;20804;-29
2022/08/01 04:34:17;;;;;;;9.35;7.15;;;;;;;21.75;56.31;99668.81;5008229;28;20042;-29
2022/08/01 04:36:45;;;;;;;8.18;6.72;;;;;;;21.94;56.06;99674.09;5008028;28;20029;-27
2022/08/01 04:39:13;;;;;;;8.60;7.72;;;;;;;22.07;55.33;99665.13;5008135;28;20085;-39
2022/08/01 04:41:39;;;;;;;7.45;6.45;;;;;;;22.07;55.47;99670.56;5007970;28;20040;-28
2022/08/01 04:44:06;;;;;;;9.82;6.75;;;;;;;22.23;54.76;99663.72;5009330;28;20529;-27
2022/08/01 04:46:33;;;;;;;7.38;6.22;;;;;;;22.42;54.94;99671.69;5009551;28;20526;-31
2022/08/01 04:49:00;;;;;;;7.38;5.75;;;;;;;22.44;54.44;99650.47;5008034;28;20129;-27
2022/08/01 04:51:25;;;;;;;11.80;6.28;;;;;;;22.58;54.78;99663.19;5007748;28;20033;-27
2022/08/01 04:53:51;;;;;;;8.75;6.28;;;;;;;22.43;55.09;99651.59;5009338;28;20108;-27
2022/08/01 04:56:19;;;;;;;7.47;6.32;;;;;;;22.72;54.67;99655.78;5008777;28;20042;-30
2022/08/01 04:58:44;;;;;;;11.97;6.47;;;;;;;22.81;54.89;99667.50;5007784;28;20077;-27
2022/08/01 05:01:10;;;;;;;7.97;6.00;;;;;;;23.03;54.07;99658.53;5008854;28;20311;-27
2022/08/01 05:03:37;;;;;;;7.03;5.90;;;;;;;23.07;53.02;99645.13;5007657;28;20021;-27
2022/08/01 05:06:02;;;;;;;10.80;5.78;;;;;;;23.18;53.59;99664.69;5007659;28;20040;-28
2022/08/01 05:08:28;;;;;;;9.68;5.30;;;;;;;23.14;52.75;99661.00;5008583;28;20029;-27
2022/08/01 05:10:54;;;;;;;7.63;5.15;;;;;;;23.15;51.61;99654.44;5009117;28;20453;-27
2022/08/01 05:13:20;;;;;;;6.43;4.32;;;;;;;23.22;49.60;99636.53;5008851;28;20034;-31
2022/08/01 05:15:45;;;;;;;7.20;4.65;;;;;;;23.36;49.52;99654.69;5009199;28;20127;-32
2022/08/01 05:18:11;;;;;;;5.82;4.43;;;;;;;23.35;50.24;99666.69;5008719;28;20053;-28
2022/08/01 05:20:37;;;;;;;7.50;4.55;;;;;;;23.32;48.83;99638.19;5008716;28;20402;-27
2022/08/01 05:23:03;;;;;;;5.55;4.00;;;;;;;23.31;48.11;99636.56;5007369;28;20490;-30
2022/08/01 05:25:29;;;;;;;7.88;3.95;;;;;;;23.50;48.16;99649.94;5007162;28;20029;-27
2022/08/01 05:27:54;;;;;;;8.70;4.65;;;;;;;23.69;47.55;99643.44;5008675;28;20030;-30
2022/08/01 05:30:20;;;;;;;5.78;3.88;;;;;;;23.71;46.63;99639.28;5008554;28;20026;-28
2022/08/01 05:32:45;;;;;;;6.63;3.72;;;;;;;23.76;46.91;99641.03;5008322;28;20029;-30
2022/08/01 05:35:11;;;;;;;5.78;3.40;;;;;;;23.97;45.62;99655.69;5007089;28;20116;-27
2022/08/01 05:37:36;;;;;;;7.03;3.65;;;;;;;23.95;46.08;99622.53;5008464;28;20057;-29
2022/08/01 05:40:03;;;;;;;7.55;3.47;;;;;;;24.00;44.46;99657.75;5008284;28;20029;-28
2022/08/01 05:42:28;;;;;;;7.28;3.17;;;;;;;24.09;44.29;99648.78;5007126;28;20030;-29
2022/08/01 05:44:54;;;;;;;6.57;3.38;;;;;;;24.20;43.87;99637.28;5007000;28;20026;-27
2022/08/01 05:47:19;;;;;;;8.85;3.30;;;;;;;24.44;43.44;99658.59;5008364;28;20034;-27
2022/08/01 05:49:45;;;;;;;4.97;3.15;;;;;;;24.44;43.65;99661.31;5008036;28;20030;-29
2022/08/01 05:52:11;;;;;;;4.38;2.97;;;;;;;24.46;43.46;99659.06;4990295;28;20042;-27
2022/08/01 05:54:37;;;;;;;6.18;3.20;;;;;;;24.54;44.18;99649.31;5008226;28;20406;-28
2022/08/01 05:57:03;;;;;;;7.43;3.88;;;;;;;24.25;42.21;99641.75;5008295;28;20117;-27
2022/08/01 05:59:29;;;;;;;5.43;3.28;;;;;;;24.33;42.29;99637.44;5007213;28;20034;-34
2022/08/01 06:01:54;;;;;;;5.18;3.20;;;;;;;24.52;41.67;99661.66;5006863;28;20038;-28
2022/08/01 06:04:20;;;;;;;6.55;3.25;;;;;;;24.49;41.78;99651.38;5008108;28;20030;-29
2022/08/01 06:06:45;;;;;;;4.10;3.05;;;;;;;24.78;41.37;99646.03;5008003;28;20037;-32
2022/08/01 06:09:11;;;;;;;5.40;3.40;;;;;;;24.80;41.56;99643.81;5007955;28;20029;-30
2022/08/01 06:11:36;;;;;;;7.75;4.15;;;;;;;24.67;40.95;99625.72;5008059;28;20041;-29
2022/08/01 06:14:02;;;;;;;5.22;3.38;;;;;;;24.97;40.63;99639.44;5006535;28;20037;-28
2022/08/01 06:16:27;;;;;;;4.80;2.90;;;;;;;25.10;40.11;99643.88;5006364;28;20535;-27
2022/08/01 06:18:52;;;;;;;5.28;2.63;;;;;;;25.02;38.96;99626.41;4988991;28;20045;-27
2022/08/01 06:21:18;;;;;;;6.82;2.88;;;;;;;25.16;37.90;99637.13;4992633;28;20041;-27
2022/08/01 06:23:43;;;;;;;5.15;2.20;;;;;;;25.17;37.63;99625.09;4991947;28;20173;-28
2022/08/01 06:26:09;;;;;;;14.85;3.22;;;;;;;25.36;37.95;99632.09;4992336;28;20466;-32
2022/08/01 06:28:35;;;;;;;5.20;2.55;;;;;;;25.57;37.96;99641.13;4991847;28;20161;-27
2022/08/01 06:31:01;;;;;;;4.82;2.50;;;;;;;25.87;36.67;99635.66;4992257;28;20074;-28
2022/08/01 06:33:27;;;;;;;5.28;2.10;;;;;;;25.66;35.77;99636.44;4992092;28;20077;-30
2022/08/01 06:35:53;;;;;;;9.30;2.55;;;;;;;25.62;35.64;99640.97;4990611;28;20054;-30
2022/08/01 06:38:18;;;;;;;6.78;2.13;;;;;;;25.45;36.18;99632.84;4991771;28;20114;-30
2022/08/01 06:40:44;;;;;;;4.07;2.08;;;;;;;25.58;36.27;99626.38;4991843;28;20482;-29
2022/08/01 06:43:11;;;;;;;6.88;2.25;;;;;;;25.61;35.77;99619.44;4992266;28;20445;-33
2022/08/01 06:45:37;;;;;;;5.50;2.33;;;;;;;25.85;36.15;99641.44;4990714;28;20066;-27
2022/08/01 06:48:03;;;;;;;3.38;2.30;;;;;;;26.16;35.44;99634.03;4990689;28;20076;-28
2022/08/01 06:50:29;;;;;;;5.22;2.35;;;;;;;26.05;34.85;99628.16;4990216;28;20075;-31
2022/08/01 06:52:54;;;;;;;9.57;2.83;;;;;;;25.79;35.38;99629.13;4991669;28;20057;-31
2022/08/01 06:55:20;;;;;;;4.22;2.08;;;;;;;25.84;34.44;99612.53;4990425;28;20041;-29
2022/08/01 06:57:51;;;;;;;8.77;2.50;;;;;;;26.04;34.80;99632.81;4991526;28;20725;-30
2022/08/01 07:00:20;;;;;;;5.57;2.20;;;;;;;26.38;34.17;99630.94;4990366;28;20030;-30
2022/08/01 07:02:46;;;;;;;8.80;2.97;;;;;;;26.41;33.36;99634.94;4991301;28;20109;-28
2022/08/01 07:05:12;;;;;;;7.72;2.50;;;;;;;26.52;33.95;99624.38;4990306;28;20133;-31
2022/08/01 07:07:38;;;;;;;6.05;2.42;;;;;;;26.62;32.92;99623.97;4989911;28;20023;-28
2022/08/01 07:10:04;;;;;;;4.63;2.20;;;;;;;26.73;33.67;99636.09;4991605;28;20026;-30
2022/08/01 07:12:30;;;;;;;5.28;2.17;;;;;;;26.49;32.99;99631.31;4989691;28;20533;-32
2022/08/01 07:14:55;;;;;;;6.82;2.67;;;;;;;26.65;33.18;99626.06;4990179;28;20092;-30
2022/08/01 07:17:20;;;;;;;9.95;2.47;;;;;;;26.69;32.78;99635.19;4998404;28;20065;-29
2022/08/01 07:19:47;;;;;;;4.65;2.30;;;;;;;26.75;33.09;99633.03;5009206;28;20032;-28
2022/08/01 07:22:13;;;;;;;4.13;2.55;;;;;;;26.95;32.99;99640.38;5009284;28;20065;-33
2022/08/01 07:24:39;;;;;;;3.57;2.23;;;;;;;26.78;33.12;99633.16;5009356;28;20026;-27
2022/08/01 07:27:04;;;;;;;8.05;2.55;;;;;;;27.17;33.04;99633.66;5010942;28;20040;-29
2022/08/01 07:29:30;;;;;;;9.10;2.15;;;;;;;27.11;32.23;99631.50;5010434;28;20040;-29
2022/08/01 07:31:57;;;;;;;6.07;2.13;;;;;;;27.42;32.52;99625.50;5010700;28;20103;-31
2022/08/01 07:34:23;;;;;;;3.97;2.17;;;;;;;27.51;32.11;99619.91;5009176;28;20417;-30
2022/08/01 07:36:49;;;;;;;5.82;2.13;;;;;;;28.05;31.59;99623.16;5008867;28;20100;-28
2022/08/01 07:39:14;;;;;;;6.80;2.20;;;;;;;27.71;30.99;99618.19;5010584;28;20023;-29
2022/08/01 07:41:40;;;;;;;4.88;2.30;;;;;;;27.54;30.26;99603.56;5009453;28;20136;-28
2022/08/01 07:44:05;;;;;;;5.18;2.35;;;;;;;27.54;31.29;99614.53;5009103;28;20026;-28
2022/08/01 07:46:31;;;;;;;5.32;1.90;;;;;;;27.25;31.52;99619.09;5010215;28;20038;-28
2022/08/01 07:48:57;;;;;;;6.10;2.40;;;;;;;27.61;31.71;99625.72;5010335;28;20017;-31
2022/08/01 07:51:22;;;;;;;5.50;2.20;;;;;;;27.65;31.41;99610.19;5024824;28;20037;-28
2022/08/01 07:53:48;;;;;;;8.43;2.10;;;;;;;27.58;30.65;99604.50;5009213;28;20030;-29
2022/08/01 07:56:13;;;;;;;6.97;2.22;;;;;;;27.73;30.40;99605.72;5010256;28;20383;-28
2022/08/01 07:58:39;;;;;;;5.63;2.58;;;;;;;27.93;30.69;99609.50;5009871;28;20474;-30
2022/08/01 08:01:04;;;;;;;4.68;1.80;;;;;;;27.94;30.94;99589.16;5008511;28;20092;-29
2022/08/01 08:03:30;;;;;;;6.65;2.15;;;;;;;27.85;30.72;99593.94;5009809;28;20026;-28
2022/08/01 08:05:55;;;;;;;8.32;2.00;;;;;;;27.79;30.85;99603.56;4992290;28;20037;-28
2022/08/01 08:08:21;;;;;;;13.43;2.20;;;;;;;28.02;31.16;99590.94;5009967;28;20109;-30
2022/08/01 08:10:47;;;;;;;5.30;1.90;;;;;;;27.99;29.99;99613.59;5008787;28;20092;-28
2022/08/01 08:13:12;;;;;;;4.75;2.10;;;;;;;27.91;30.53;99600.00;5009901;28;20022;-28
2022/08/01 08:15:38;;;;;;;3.85;1.90;;;;;;;28.02;30.41;99601.13;5008471;28;20609;-28
2022/08/01 08:18:04;;;;;;;4.25;1.90;;;;;;;28.30;29.35;99617.59;5008122;28;20131;-32
2022/08/01 08:20:29;;;;;;;4.85;1.88;;;;;;;28.62;29.41;99606.72;5009070;28;20107;-32
2022/08/01 08:22:57;;;;;;;5.15;1.92;;;;;;;29.03;29.42;99623.81;5009831;28;20516;-30
2022/08/01 08:25:24;;;;;;;4.47;2.30;;;;;;;28.69;29.65;99606.09;5023552;28;20049;-28
2022/08/01 08:27:49;;;;;;;3.92;2.05;;;;;;;28.59;30.03;99608.22;5027224;28;20485;-34
2022/08/01 08:30:15;;;;;;;4.65;2.63;;;;;;;28.81;29.60;99601.34;5029045;28;20163;-28
2022/08/01 08:32:41;;;;;;;4.63;2.20;;;;;;;28.64;29.28;99596.19;5027798;28;20029;-28
2022/08/01 08:35:07;;;;;;;3.75;1.95;;;;;;;29.05;28.90;99607.81;5027860;28;20025;-32
2022/08/01 08:37:34;;;;;;;4.88;1.92;;;;;;;28.89;28.88;99601.50;5027052;28;20057;-28
2022/08/01 08:40:00;;;;;;;2.87;1.60;;;;;;;28.62;28.35;99599.25;5026974;28;20025;-33
2022/08/01 08:42:26;;;;;;;8.38;2.10;;;;;;;28.60;28.70;99571.38;5025980;28;20556;-30
2022/08/01 08:44:54;;;;;;;5.57;2.13;;;;;;;28.94;29.14;99580.09;5026765;28;20033;-29
2022/08/01 08:47:21;;;;;;;5.45;1.90;;;;;;;29.26;28.51;99574.63;5028185;28;20057;-31
2022/08/01 08:49:47;;;;;;;5.43;1.97;;;;;;;29.36;28.23;99589.72;5026362;28;20037;-32
2022/08/01 08:52:15;;;;;;;3.83;2.00;;;;;;;29.73;28.58;99586.66;5027982;28;20108;-30
2022/08/01 08:54:41;;;;;;;;;;;;;;;30.04;28.32;99603.03;5026650;28;20044;-34
2022/08/01 08:57:07;;;;;;;5.93;2.00;;;;;;;29.29;27.97;99595.06;5027791;28;19920;-32
2022/08/01 08:59:33;;;;;;;3.97;1.90;;;;;;;29.21;28.92;99567.44;5026428;28;20071;-32
2022/08/01 09:01:59;;;;;;;3.42;1.60;;;;;;;29.41;28.40;99570.25;5026077;28;20072;-31
2022/08/01 09:04:26;;;;;;;17.02;2.53;;;;;;;29.56;28.30;99572.13;5026202;28;20526;-34
2022/08/01 09:06:52;;;;;;;5.38;1.80;;;;;;;29.64;28.39;99576.63;5026127;28;20032;-31
2022/08/01 09:09:18;;;;;;;3.13;2.25;;;;;;;29.83;27.34;99570.41;5026126;28;20029;-34
2022/08/01 09:11:44;;;;;;;3.53;1.70;;;;;;;29.92;28.14;99550.94;5024718;28;20030;-33
2022/08/01 09:14:22;;;;;;;4.68;1.95;;;;;;;29.97;27.80;99566.34;5025937;28;20087;-33
2022/08/01 09:16:58;;;;;;;5.72;2.30;;;;;;;30.33;27.98;99569.84;5025744;28;20057;-33
2022/08/01 09:19:23;;;;;;;6.63;1.92;;;;;;;30.18;27.07;99574.22;5023758;28;20468;-31
2022/08/01 09:22:00;;;;;;;2.70;1.77;;;;;;;30.14;27.37;99567.84;5026268;28;20025;-31
2022/08/01 09:24:30;;;;;;;4.68;2.03;;;;;;;30.37;27.12;99571.50;5028384;28;20083;-31
2022/08/01 09:26:57;;;;;;;2.90;1.90;;;;;;;30.44;26.72;99548.81;5025935;28;20038;-30
2022/08/01 09:29:25;;;;;;;3.40;1.90;;;;;;;30.55;28.11;99538.81;5025498;28;20083;-32
2022/08/01 09:31:51;;;;;;;3.28;1.80;;;;;;;30.80;27.43;99539.22;5030779;28;20485;-30
2022/08/01 09:34:25;;;;;;;5.70;1.90;;;;;;;30.75;27.82;99558.81;5046546;28;20025;-28
2022/08/01 09:36:56;;;;;;;9.70;2.45;;;;;;;30.55;27.11;99560.03;5036484;28;20032;-28
2022/08/01 09:39:27;;;;;;;3.15;1.67;;;;;;;30.42;27.61;99557.47;5041489;28;20032;-34
2022/08/01 09:41:55;;;;;;;3.30;1.92;;;;;;;30.55;27.32;99532.50;5029582;28;20061;-30
2022/08/01 09:44:37;;;;;;;6.78;1.90;;;;;;;30.80;27.25;99541.19;5037062;28;20021;-27
2022/08/01 09:47:02;;;;;;;3.15;1.92;;;;;;;30.59;26.86;99536.91;5037868;28;20033;-28
2022/08/01 09:49:36;;;;;;;4.57;2.03;;;;;;;30.74;26.84;99554.44;5036188;28;20087;-30
2022/08/01 09:52:23;;;;;;;5.30;1.90;;;;;;;30.78;26.86;99543.50;5034598;28;20100;-31
2022/08/01 09:55:00;;;;;;;4.20;2.00;;;;;;;30.77;27.82;99539.97;5035090;28;20043;-35
2022/08/01 09:57:26;;;;;;;;;;;;;;;30.86;26.90;99536.16;5034799;28;20033;-33
2022/08/01 09:59:54;;;;;;;4.70;2.03;;;;;;;30.75;27.94;99531.28;5033482;28;19999;-29
2022/08/01 10:02:31;;;;;;;5.00;2.30;;;;;;;31.10;27.31;99537.72;5029281;28;20025;-29
2022/08/01 10:04:56;;;;;;;4.17;2.20;;;;;;;31.37;26.87;99516.50;5030812;28;20029;-35
2022/08/01 10:07:22;;;;;;;6.97;2.00;;;;;;;31.29;26.25;99528.59;5029244;28;20029;-30
2022/08/01 10:09:48;;;;;;;4.28;1.77;;;;;;;31.17;26.39;99535.09;5026620;28;20022;-29
2022/08/01 10:12:16;;;;;;;6.53;2.00;;;;;;;31.14;27.29;99509.09;5025088;28;20026;-35
2022/08/01 10:14:44;;;;;;;3.00;1.80;;;;;;;31.64;26.70;99523.56;5024656;28;20038;-30
2022/08/01 10:17:15;;;;;;;8.27;2.30;;;;;;;31.51;26.83;99537.97;5024438;28;20061;-30
2022/08/01 10:19:43;;;;;;;4.57;2.55;;;;;;;30.99;26.94;99529.31;5025058;28;20037;-30
2022/08/01 10:22:10;;;;;;;3.75;1.80;;;;;;;31.14;26.84;99531.13;5025329;28;20029;-29
2022/08/01 10:24:40;;;;;;;2.55;2.00;;;;;;;31.75;27.07;99533.94;5026479;28;20061;-30
2022/08/01 10:27:10;;;;;;;4.82;1.88;;;;;;;31.73;25.74;99539.84;5037252;28;20039;-28
2022/08/01 10:29:41;;;;;;;4.00;1.80;;;;;;;31.59;25.98;99531.38;5045697;28;20205;-33
2022/08/01 10:32:09;;;;;;;4.25;2.10;;;;;;;31.21;26.67;99520.22;5046098;28;20094;-33
2022/08/01 10:34:35;;;;;;;3.47;2.00;;;;;;;31.22;27.17;99513.53;5045819;28;20013;-30
2022/08/01 10:37:01;;;;;;;2.38;1.65;;;;;;;31.56;26.12;99534.88;5034787;28;20040;-29
2022/08/01 10:39:29;;;;;;;4.47;2.00;;;;;;;31.74;25.96;99526.84;5036548;28;20025;-29
2022/08/01 10:41:55;;;;;;;2.88;2.13;;;;;;;31.91;26.98;99537.28;5036792;28;20118;-30
2022/08/01 10:44:22;;;;;;;5.20;1.85;;;;;;;31.94;26.60;99528.25;5035823;28;20028;-31
2022/08/01 10:46:52;;;;;;;2.55;1.80;;;;;;;31.87;26.30;99519.91;5036374;28;20047;-30
2022/08/01 10:49:24;;;;;;;7.10;2.10;;;;;;;32.09;26.03;99539.50;5037255;28;20075;-31
2022/08/01 10:51:49;;;;;;;3.50;1.80;;;;;;;32.19;25.48;99544.31;5031845;28;20029;-32
2022/08/01 10:54:15;;;;;;;3.53;1.70;;;;;;;32.49;25.64;99535.16;5036019;28;20034;-34
2022/08/01 10:56:49;;;;;;;4.63;1.98;;;;;;;32.51;24.98;99532.78;5036473;28;20037;-34
2022/08/01 10:59:29;;;;;;;3.67;1.85;;;;;;;32.88;25.07;99520.94;5035973;28;20445;-31
2022/08/01 11:02:00;;;;;;;3.47;1.73;;;;;;;33.03;25.64;99528.13;5030823;28;20064;-29
2022/08/01 11:04:45;;;;;;;4.97;1.90;;;;;;;32.26;26.08;99533.34;5037158;28;20532;-32
2022/08/01 11:07:20;;;;;;;4.78;1.90;;;;;;;32.90;25.49;99505.56;5039189;28;20033;-33
2022/08/01 11:09:50;;;;;;;3.10;1.95;;;;;;;33.28;23.94;99530.28;5039268;28;20030;-29
2022/08/01 11:12:17;;;;;;;4.15;1.83;;;;;;;32.48;25.26;99528.06;5036605;28;20853;-31
2022/08/01 11:14:58;;;;;;;3.45;1.88;;;;;;;32.31;25.45;99508.19;5038085;28;20096;-31
2022/08/01 11:17:39;;;;;;;2.60;1.92;;;;;;;31.75;25.26;99496.16;5038658;28;20449;-31
2022/08/01 11:20:04;;;;;;;4.90;1.85;;;;;;;32.06;25.82;99515.41;5038935;28;20017;-30
2022/08/01 11:22:31;;;;;;;5.30;1.80;;;;;;;31.48;25.59;99506.44;5037654;28;20053;-30
2022/08/01 11:24:57;;;;;;;3.53;1.73;;;;;;;31.58;26.08;99518.75;5040517;28;20024;-31
2022/08/01 11:27:29;;;;;;;5.55;2.28;;;;;;;31.96;25.94;99514.13;5038156;28;20486;-33
2022/08/01 11:30:09;;;;;;;3.35;1.65;;;;;;;32.36;25.33;99505.06;5038721;28;20529;-31
2022/08/01 11:32:49;;;;;;;4.32;1.75;;;;;;;32.25;25.47;99498.69;5037382;28;20139;-32